Terminal Aerodrome Forecast
Issued by NWS Paducah, KY

Home | Current Version | Previous Version | Text Only | Print | Product List | Glossary On
Versions: 1 2 3 4 5 6 7 8 9 10 11 12 13 14 15 16 17 18 19
668
FTUS43 KPAH 281220 AAA
TAFEVV
TAF AMD
KEVV 281220Z 2812/2912 34005KT P6SM OVC008
      TEMPO 2812/2815 5SM BR
     FM281500 35006KT P6SM BKN012
     FM290000 04005KT P6SM BKN020=

USA.gov is the U.S. government's official web portal to all federal, state and local government web resources and services.